sensor_id;sensor_type;location;lat;lon;timestamp;P1;durP1;ratioP1;P2;durP2;ratioP2
66256;SDS011;53049;43.446;3.698;2024-01-15T00:01:56;5.72;;;3.22;;
66256;SDS011;53049;43.446;3.698;2024-01-15T00:04:22;5.45;;;3.25;;
66256;SDS011;53049;43.446;3.698;2024-01-15T00:06:47;6.13;;;3.15;;
66256;SDS011;53049;43.446;3.698;2024-01-15T00:09:14;5.53;;;3.08;;
66256;SDS011;53049;43.446;3.698;2024-01-15T00:11:39;5.90;;;3.58;;
66256;SDS011;53049;43.446;3.698;2024-01-15T00:14:05;5.35;;;2.78;;
66256;SDS011;53049;43.446;3.698;2024-01-15T00:16:31;5.68;;;3.22;;
66256;SDS011;53049;43.446;3.698;2024-01-15T00:18:57;5.97;;;2.88;;
66256;SDS011;53049;43.446;3.698;2024-01-15T00:21:22;4.65;;;2.90;;
66256;SDS011;53049;43.446;3.698;2024-01-15T00:23:48;4.28;;;2.60;;
66256;SDS011;53049;43.446;3.698;2024-01-15T00:26:14;6.35;;;2.83;;
66256;SDS011;53049;43.446;3.698;2024-01-15T00:28:40;5.40;;;2.53;;
66256;SDS011;53049;43.446;3.698;2024-01-15T00:31:06;4.03;;;2.40;;
66256;SDS011;53049;43.446;3.698;2024-01-15T00:33:31;5.97;;;2.53;;
66256;SDS011;53049;43.446;3.698;2024-01-15T00:35:57;3.78;;;2.20;;
66256;SDS011;53049;43.446;3.698;2024-01-15T00:38:23;4.85;;;2.40;;
66256;SDS011;53049;43.446;3.698;2024-01-15T00:40:48;4.35;;;2.67;;
66256;SDS011;53049;43.446;3.698;2024-01-15T00:43:14;5.28;;;2.65;;
66256;SDS011;53049;43.446;3.698;2024-01-15T00:45:43;4.55;;;2.40;;
66256;SDS011;53049;43.446;3.698;2024-01-15T00:48:08;4.28;;;2.47;;
66256;SDS011;53049;43.446;3.698;2024-01-15T00:50:34;5.05;;;2.53;;
66256;SDS011;53049;43.446;3.698;2024-01-15T00:53:00;5.28;;;2.30;;
66256;SDS011;53049;43.446;3.698;2024-01-15T00:55:27;4.75;;;2.53;;
66256;SDS011;53049;43.446;3.698;2024-01-15T00:57:53;4.63;;;2.72;;
66256;SDS011;53049;43.446;3.698;2024-01-15T01:00:19;4.93;;;2.53;;
66256;SDS011;53049;43.446;3.698;2024-01-15T01:02:44;5.95;;;2.28;;
66256;SDS011;53049;43.446;3.698;2024-01-15T01:05:10;4.43;;;2.30;;
66256;SDS011;53049;43.446;3.698;2024-01-15T01:07:35;7.43;;;3.08;;
66256;SDS011;53049;43.446;3.698;2024-01-15T01:10:01;4.57;;;2.50;;
66256;SDS011;53049;43.446;3.698;2024-01-15T01:12:27;3.75;;;2.35;;
66256;SDS011;53049;43.446;3.698;2024-01-15T01:14:53;5.28;;;2.85;;
66256;SDS011;53049;43.446;3.698;2024-01-15T01:17:18;5.82;;;2.60;;
66256;SDS011;53049;43.446;3.698;2024-01-15T01:19:44;5.72;;;2.85;;
66256;SDS011;53049;43.446;3.698;2024-01-15T01:22:09;5.25;;;2.83;;
66256;SDS011;53049;43.446;3.698;2024-01-15T01:24:35;5.85;;;2.70;;
66256;SDS011;53049;43.446;3.698;2024-01-15T01:27:01;7.15;;;3.28;;
66256;SDS011;53049;43.446;3.698;2024-01-15T01:29:27;6.75;;;3.47;;
66256;SDS011;53049;43.446;3.698;2024-01-15T01:31:53;7.13;;;3.05;;
66256;SDS011;53049;43.446;3.698;2024-01-15T01:34:19;6.35;;;2.88;;
66256;SDS011;53049;43.446;3.698;2024-01-15T01:36:45;6.43;;;2.67;;
66256;SDS011;53049;43.446;3.698;2024-01-15T01:39:10;5.63;;;2.90;;
66256;SDS011;53049;43.446;3.698;2024-01-15T01:41:37;5.50;;;2.90;;
66256;SDS011;53049;43.446;3.698;2024-01-15T01:44:03;5.53;;;2.65;;
66256;SDS011;53049;43.446;3.698;2024-01-15T01:46:29;5.35;;;2.58;;
66256;SDS011;53049;43.446;3.698;2024-01-15T01:48:56;5.20;;;2.78;;
66256;SDS011;53049;43.446;3.698;2024-01-15T01:51:22;5.45;;;2.55;;
66256;SDS011;53049;43.446;3.698;2024-01-15T01:53:49;4.57;;;2.45;;
66256;SDS011;53049;43.446;3.698;2024-01-15T01:56:15;4.15;;;2.53;;
66256;SDS011;53049;43.446;3.698;2024-01-15T01:58:42;4.85;;;2.60;;
66256;SDS011;53049;43.446;3.698;2024-01-15T02:01:09;4.25;;;2.60;;
66256;SDS011;53049;43.446;3.698;2024-01-15T02:03:36;4.95;;;2.75;;
66256;SDS011;53049;43.446;3.698;2024-01-15T02:06:03;4.72;;;2.60;;
66256;SDS011;53049;43.446;3.698;2024-01-15T02:08:29;6.07;;;2.85;;
66256;SDS011;53049;43.446;3.698;2024-01-15T02:10:55;4.50;;;2.70;;
66256;SDS011;53049;43.446;3.698;2024-01-15T02:13:21;4.85;;;2.78;;
66256;SDS011;53049;43.446;3.698;2024-01-15T02:15:47;5.15;;;2.88;;
66256;SDS011;53049;43.446;3.698;2024-01-15T02:18:12;4.80;;;2.80;;
66256;SDS011;53049;43.446;3.698;2024-01-15T02:20:38;7.30;;;3.30;;
66256;SDS011;53049;43.446;3.698;2024-01-15T02:23:08;5.88;;;3.35;;
66256;SDS011;53049;43.446;3.698;2024-01-15T02:25:47;7.30;;;3.13;;
66256;SDS011;53049;43.446;3.698;2024-01-15T02:28:14;6.82;;;3.63;;
66256;SDS011;53049;43.446;3.698;2024-01-15T02:30:42;5.97;;;3.30;;
66256;SDS011;53049;43.446;3.698;2024-01-15T02:33:10;6.93;;;3.38;;
66256;SDS011;53049;43.446;3.698;2024-01-15T02:35:36;7.50;;;3.58;;
66256;SDS011;53049;43.446;3.698;2024-01-15T02:38:02;8.32;;;3.47;;
66256;SDS011;53049;43.446;3.698;2024-01-15T02:40:28;5.70;;;3.30;;
66256;SDS011;53049;43.446;3.698;2024-01-15T02:42:54;6.20;;;3.58;;
66256;SDS011;53049;43.446;3.698;2024-01-15T02:45:21;7.80;;;3.45;;
66256;SDS011;53049;43.446;3.698;2024-01-15T02:47:47;6.05;;;3.75;;
66256;SDS011;53049;43.446;3.698;2024-01-15T02:50:13;7.28;;;3.70;;
66256;SDS011;53049;43.446;3.698;2024-01-15T02:52:39;6.13;;;3.30;;
66256;SDS011;53049;43.446;3.698;2024-01-15T02:55:05;6.35;;;3.72;;
66256;SDS011;53049;43.446;3.698;2024-01-15T02:57:30;6.78;;;3.58;;
66256;SDS011;53049;43.446;3.698;2024-01-15T02:59:56;7.03;;;3.90;;
66256;SDS011;53049;43.446;3.698;2024-01-15T03:02:22;7.13;;;3.72;;
66256;SDS011;53049;43.446;3.698;2024-01-15T03:04:48;6.88;;;3.75;;
66256;SDS011;53049;43.446;3.698;2024-01-15T03:07:13;6.72;;;3.90;;
66256;SDS011;53049;43.446;3.698;2024-01-15T03:09:39;5.60;;;3.60;;
66256;SDS011;53049;43.446;3.698;2024-01-15T03:12:05;7.30;;;3.97;;
66256;SDS011;53049;43.446;3.698;2024-01-15T03:14:31;6.70;;;3.90;;
66256;SDS011;53049;43.446;3.698;2024-01-15T03:16:57;6.30;;;3.55;;
66256;SDS011;53049;43.446;3.698;2024-01-15T03:19:22;7.22;;;3.80;;
66256;SDS011;53049;43.446;3.698;2024-01-15T03:21:48;6.72;;;3.50;;
66256;SDS011;53049;43.446;3.698;2024-01-15T03:24:14;6.20;;;3.22;;
66256;SDS011;53049;43.446;3.698;2024-01-15T03:26:39;6.00;;;3.60;;
66256;SDS011;53049;43.446;3.698;2024-01-15T03:29:05;6.82;;;4.00;;
66256;SDS011;53049;43.446;3.698;2024-01-15T03:31:32;5.95;;;3.38;;
66256;SDS011;53049;43.446;3.698;2024-01-15T03:33:58;6.20;;;3.70;;
66256;SDS011;53049;43.446;3.698;2024-01-15T03:36:23;5.95;;;3.20;;
66256;SDS011;53049;43.446;3.698;2024-01-15T03:38:49;7.18;;;3.85;;
66256;SDS011;53049;43.446;3.698;2024-01-15T03:41:14;6.88;;;3.55;;
66256;SDS011;53049;43.446;3.698;2024-01-15T03:43:40;6.70;;;3.92;;
66256;SDS011;53049;43.446;3.698;2024-01-15T03:46:06;6.80;;;3.80;;
66256;SDS011;53049;43.446;3.698;2024-01-15T03:48:32;7.40;;;3.95;;
66256;SDS011;53049;43.446;3.698;2024-01-15T03:50:57;5.97;;;3.60;;
66256;SDS011;53049;43.446;3.698;2024-01-15T03:53:23;5.70;;;3.53;;
66256;SDS011;53049;43.446;3.698;2024-01-15T03:55:49;5.75;;;3.50;;
66256;SDS011;53049;43.446;3.698;2024-01-15T03:58:15;6.60;;;3.90;;
66256;SDS011;53049;43.446;3.698;2024-01-15T04:00:42;5.90;;;3.70;;
66256;SDS011;53049;43.446;3.698;2024-01-15T04:03:07;5.97;;;3.90;;
66256;SDS011;53049;43.446;3.698;2024-01-15T04:05:33;5.50;;;3.30;;
66256;SDS011;53049;43.446;3.698;2024-01-15T04:07:59;7.60;;;3.90;;
66256;SDS011;53049;43.446;3.698;2024-01-15T04:10:25;6.13;;;3.47;;
66256;SDS011;53049;43.446;3.698;2024-01-15T04:12:51;6.22;;;3.70;;
66256;SDS011;53049;43.446;3.698;2024-01-15T04:15:17;5.93;;;3.70;;
66256;SDS011;53049;43.446;3.698;2024-01-15T04:17:43;6.03;;;3.83;;
66256;SDS011;53049;43.446;3.698;2024-01-15T04:20:08;7.38;;;3.95;;
66256;SDS011;53049;43.446;3.698;2024-01-15T04:22:36;7.25;;;4.22;;
66256;SDS011;53049;43.446;3.698;2024-01-15T04:25:02;7.88;;;3.42;;
66256;SDS011;53049;43.446;3.698;2024-01-15T04:27:28;6.72;;;3.90;;
66256;SDS011;53049;43.446;3.698;2024-01-15T04:29:54;5.53;;;3.50;;
66256;SDS011;53049;43.446;3.698;2024-01-15T04:32:20;5.47;;;3.30;;
66256;SDS011;53049;43.446;3.698;2024-01-15T04:34:45;5.90;;;3.33;;
66256;SDS011;53049;43.446;3.698;2024-01-15T04:37:11;6.03;;;3.53;;
66256;SDS011;53049;43.446;3.698;2024-01-15T04:39:38;5.28;;;3.28;;
66256;SDS011;53049;43.446;3.698;2024-01-15T04:42:04;6.10;;;3.00;;
66256;SDS011;53049;43.446;3.698;2024-01-15T04:44:30;6.68;;;3.80;;
66256;SDS011;53049;43.446;3.698;2024-01-15T04:46:55;7.68;;;3.60;;
66256;SDS011;53049;43.446;3.698;2024-01-15T04:49:21;9.85;;;3.20;;
66256;SDS011;53049;43.446;3.698;2024-01-15T04:51:47;7.18;;;4.20;;
66256;SDS011;53049;43.446;3.698;2024-01-15T04:54:12;7.32;;;3.88;;
66256;SDS011;53049;43.446;3.698;2024-01-15T04:56:42;9.02;;;4.38;;
66256;SDS011;53049;43.446;3.698;2024-01-15T04:59:09;7.43;;;4.15;;
66256;SDS011;53049;43.446;3.698;2024-01-15T05:01:34;7.18;;;3.85;;
66256;SDS011;53049;43.446;3.698;2024-01-15T05:04:00;9.35;;;4.63;;
66256;SDS011;53049;43.446;3.698;2024-01-15T05:06:26;8.60;;;4.25;;
66256;SDS011;53049;43.446;3.698;2024-01-15T05:08:52;7.60;;;4.22;;
66256;SDS011;53049;43.446;3.698;2024-01-15T05:11:18;7.43;;;4.38;;
66256;SDS011;53049;43.446;3.698;2024-01-15T05:13:43;6.47;;;3.88;;
66256;SDS011;53049;43.446;3.698;2024-01-15T05:16:09;7.20;;;4.50;;
66256;SDS011;53049;43.446;3.698;2024-01-15T05:18:35;7.30;;;4.60;;
66256;SDS011;53049;43.446;3.698;2024-01-15T05:21:02;7.07;;;4.40;;
66256;SDS011;53049;43.446;3.698;2024-01-15T05:23:28;8.52;;;4.53;;
66256;SDS011;53049;43.446;3.698;2024-01-15T05:25:54;7.10;;;4.20;;
66256;SDS011;53049;43.446;3.698;2024-01-15T05:28:19;7.53;;;4.40;;
66256;SDS011;53049;43.446;3.698;2024-01-15T05:30:45;7.38;;;5.00;;
66256;SDS011;53049;43.446;3.698;2024-01-15T05:33:12;7.20;;;4.60;;
66256;SDS011;53049;43.446;3.698;2024-01-15T05:35:37;9.48;;;5.40;;
66256;SDS011;53049;43.446;3.698;2024-01-15T05:38:03;8.45;;;5.05;;
66256;SDS011;53049;43.446;3.698;2024-01-15T05:40:29;7.97;;;4.40;;
66256;SDS011;53049;43.446;3.698;2024-01-15T05:42:54;8.75;;;4.82;;
66256;SDS011;53049;43.446;3.698;2024-01-15T05:45:20;6.88;;;4.10;;
66256;SDS011;53049;43.446;3.698;2024-01-15T05:47:46;7.85;;;4.70;;
66256;SDS011;53049;43.446;3.698;2024-01-15T05:50:11;7.43;;;4.20;;
66256;SDS011;53049;43.446;3.698;2024-01-15T05:52:37;7.40;;;4.57;;
66256;SDS011;53049;43.446;3.698;2024-01-15T05:55:04;7.95;;;4.63;;
66256;SDS011;53049;43.446;3.698;2024-01-15T05:57:30;6.90;;;4.38;;
66256;SDS011;53049;43.446;3.698;2024-01-15T05:59:56;7.78;;;4.90;;
66256;SDS011;53049;43.446;3.698;2024-01-15T06:02:21;6.85;;;4.40;;
66256;SDS011;53049;43.446;3.698;2024-01-15T06:04:47;7.57;;;4.93;;
66256;SDS011;53049;43.446;3.698;2024-01-15T06:07:12;6.18;;;4.20;;
66256;SDS011;53049;43.446;3.698;2024-01-15T06:09:38;9.07;;;5.22;;
66256;SDS011;53049;43.446;3.698;2024-01-15T06:12:04;7.82;;;4.50;;
66256;SDS011;53049;43.446;3.698;2024-01-15T06:14:32;7.90;;;4.95;;
66256;SDS011;53049;43.446;3.698;2024-01-15T06:16:57;8.13;;;4.25;;
66256;SDS011;53049;43.446;3.698;2024-01-15T06:19:23;6.47;;;4.40;;
66256;SDS011;53049;43.446;3.698;2024-01-15T06:21:48;7.97;;;4.78;;
66256;SDS011;53049;43.446;3.698;2024-01-15T06:24:14;7.75;;;4.38;;
66256;SDS011;53049;43.446;3.698;2024-01-15T06:26:42;8.00;;;4.80;;
66256;SDS011;53049;43.446;3.698;2024-01-15T06:29:08;8.35;;;5.07;;
66256;SDS011;53049;43.446;3.698;2024-01-15T06:31:34;7.80;;;4.75;;
66256;SDS011;53049;43.446;3.698;2024-01-15T06:33:59;9.38;;;5.43;;
66256;SDS011;53049;43.446;3.698;2024-01-15T06:36:25;8.55;;;4.65;;
66256;SDS011;53049;43.446;3.698;2024-01-15T06:38:51;8.75;;;5.28;;
66256;SDS011;53049;43.446;3.698;2024-01-15T06:41:16;6.93;;;4.10;;
66256;SDS011;53049;43.446;3.698;2024-01-15T06:43:42;7.28;;;4.93;;
66256;SDS011;53049;43.446;3.698;2024-01-15T06:46:08;8.38;;;4.97;;
66256;SDS011;53049;43.446;3.698;2024-01-15T06:48:34;8.45;;;4.63;;
66256;SDS011;53049;43.446;3.698;2024-01-15T06:50:59;9.25;;;5.00;;
66256;SDS011;53049;43.446;3.698;2024-01-15T06:53:25;9.52;;;4.80;;
66256;SDS011;53049;43.446;3.698;2024-01-15T06:55:51;9.52;;;5.47;;
66256;SDS011;53049;43.446;3.698;2024-01-15T06:58:16;7.18;;;4.35;;
66256;SDS011;53049;43.446;3.698;2024-01-15T07:00:42;10.30;;;4.78;;
66256;SDS011;53049;43.446;3.698;2024-01-15T07:03:08;10.75;;;5.30;;
66256;SDS011;53049;43.446;3.698;2024-01-15T07:05:33;7.93;;;4.60;;
66256;SDS011;53049;43.446;3.698;2024-01-15T07:07:59;8.48;;;4.95;;
66256;SDS011;53049;43.446;3.698;2024-01-15T07:10:25;7.97;;;5.25;;
66256;SDS011;53049;43.446;3.698;2024-01-15T07:12:51;7.70;;;4.68;;
66256;SDS011;53049;43.446;3.698;2024-01-15T07:15:16;9.38;;;5.03;;
66256;SDS011;53049;43.446;3.698;2024-01-15T07:17:42;8.77;;;5.10;;
66256;SDS011;53049;43.446;3.698;2024-01-15T07:20:08;7.28;;;4.35;;
66256;SDS011;53049;43.446;3.698;2024-01-15T07:22:37;8.73;;;4.80;;
66256;SDS011;53049;43.446;3.698;2024-01-15T07:25:04;7.80;;;4.28;;
66256;SDS011;53049;43.446;3.698;2024-01-15T07:27:30;7.90;;;4.53;;
66256;SDS011;53049;43.446;3.698;2024-01-15T07:29:56;9.40;;;4.78;;
66256;SDS011;53049;43.446;3.698;2024-01-15T07:32:23;8.80;;;4.57;;
66256;SDS011;53049;43.446;3.698;2024-01-15T07:34:49;9.88;;;5.30;;
66256;SDS011;53049;43.446;3.698;2024-01-15T07:37:14;6.72;;;4.38;;
66256;SDS011;53049;43.446;3.698;2024-01-15T07:39:40;7.53;;;4.13;;
66256;SDS011;53049;43.446;3.698;2024-01-15T07:42:06;7.35;;;4.65;;
66256;SDS011;53049;43.446;3.698;2024-01-15T07:44:32;7.55;;;4.65;;
66256;SDS011;53049;43.446;3.698;2024-01-15T07:46:58;6.57;;;3.95;;
66256;SDS011;53049;43.446;3.698;2024-01-15T07:49:24;7.03;;;4.13;;
66256;SDS011;53049;43.446;3.698;2024-01-15T07:51:50;8.93;;;4.63;;
66256;SDS011;53049;43.446;3.698;2024-01-15T07:54:15;6.78;;;4.13;;
66256;SDS011;53049;43.446;3.698;2024-01-15T07:56:57;7.82;;;4.47;;
66256;SDS011;53049;43.446;3.698;2024-01-15T07:59:24;7.65;;;4.63;;
66256;SDS011;53049;43.446;3.698;2024-01-15T08:01:51;9.95;;;5.47;;
66256;SDS011;53049;43.446;3.698;2024-01-15T08:04:18;8.32;;;5.00;;
66256;SDS011;53049;43.446;3.698;2024-01-15T08:06:44;8.75;;;5.05;;
66256;SDS011;53049;43.446;3.698;2024-01-15T08:09:10;10.93;;;5.40;;
66256;SDS011;53049;43.446;3.698;2024-01-15T08:11:41;8.55;;;4.82;;
66256;SDS011;53049;43.446;3.698;2024-01-15T08:14:07;10.55;;;5.28;;
66256;SDS011;53049;43.446;3.698;2024-01-15T08:16:34;10.27;;;4.80;;
66256;SDS011;53049;43.446;3.698;2024-01-15T08:19:00;9.73;;;4.70;;
66256;SDS011;53049;43.446;3.698;2024-01-15T08:21:26;7.20;;;4.30;;
66256;SDS011;53049;43.446;3.698;2024-01-15T08:23:55;8.60;;;4.35;;
66256;SDS011;53049;43.446;3.698;2024-01-15T08:26:21;9.75;;;4.10;;
66256;SDS011;53049;43.446;3.698;2024-01-15T08:28:47;7.55;;;4.60;;
66256;SDS011;53049;43.446;3.698;2024-01-15T08:31:13;8.43;;;3.88;;
66256;SDS011;53049;43.446;3.698;2024-01-15T08:33:39;8.70;;;4.25;;
66256;SDS011;53049;43.446;3.698;2024-01-15T08:36:04;8.02;;;4.07;;
66256;SDS011;53049;43.446;3.698;2024-01-15T08:38:30;7.30;;;3.88;;
66256;SDS011;53049;43.446;3.698;2024-01-15T08:40:56;7.60;;;4.18;;
66256;SDS011;53049;43.446;3.698;2024-01-15T08:43:24;6.88;;;4.00;;
66256;SDS011;53049;43.446;3.698;2024-01-15T08:45:50;7.95;;;4.00;;
66256;SDS011;53049;43.446;3.698;2024-01-15T08:48:16;9.95;;;3.95;;
66256;SDS011;53049;43.446;3.698;2024-01-15T08:50:42;30.45;;;15.02;;
66256;SDS011;53049;43.446;3.698;2024-01-15T08:53:10;30.05;;;14.88;;
66256;SDS011;53049;43.446;3.698;2024-01-15T08:55:37;33.03;;;21.73;;
66256;SDS011;53049;43.446;3.698;2024-01-15T08:58:03;21.35;;;13.88;;
66256;SDS011;53049;43.446;3.698;2024-01-15T09:00:29;9.82;;;5.60;;
66256;SDS011;53049;43.446;3.698;2024-01-15T09:02:55;10.45;;;5.80;;
66256;SDS011;53049;43.446;3.698;2024-01-15T09:05:21;11.15;;;6.90;;
66256;SDS011;53049;43.446;3.698;2024-01-15T09:07:47;12.13;;;7.18;;
66256;SDS011;53049;43.446;3.698;2024-01-15T09:10:14;10.15;;;5.70;;
66256;SDS011;53049;43.446;3.698;2024-01-15T09:12:39;9.90;;;5.15;;
66256;SDS011;53049;43.446;3.698;2024-01-15T09:15:05;8.65;;;4.60;;
66256;SDS011;53049;43.446;3.698;2024-01-15T09:17:32;7.53;;;4.47;;
66256;SDS011;53049;43.446;3.698;2024-01-15T09:19:57;7.65;;;3.85;;
66256;SDS011;53049;43.446;3.698;2024-01-15T09:22:23;7.18;;;3.67;;
66256;SDS011;53049;43.446;3.698;2024-01-15T09:24:49;5.63;;;3.53;;
66256;SDS011;53049;43.446;3.698;2024-01-15T09:27:15;6.70;;;3.97;;
66256;SDS011;53049;43.446;3.698;2024-01-15T09:29:41;5.80;;;3.50;;
66256;SDS011;53049;43.446;3.698;2024-01-15T09:32:08;6.75;;;3.70;;
66256;SDS011;53049;43.446;3.698;2024-01-15T09:34:34;5.57;;;3.53;;
66256;SDS011;53049;43.446;3.698;2024-01-15T09:37:00;6.70;;;3.10;;
66256;SDS011;53049;43.446;3.698;2024-01-15T09:39:26;8.20;;;3.20;;
66256;SDS011;53049;43.446;3.698;2024-01-15T09:41:52;6.40;;;3.10;;
66256;SDS011;53049;43.446;3.698;2024-01-15T09:44:19;5.40;;;3.08;;
66256;SDS011;53049;43.446;3.698;2024-01-15T09:46:49;5.55;;;2.90;;
66256;SDS011;53049;43.446;3.698;2024-01-15T09:49:18;9.02;;;2.88;;
66256;SDS011;53049;43.446;3.698;2024-01-15T09:51:44;16.85;;;3.50;;
66256;SDS011;53049;43.446;3.698;2024-01-15T09:54:10;10.60;;;3.10;;
66256;SDS011;53049;43.446;3.698;2024-01-15T09:56:38;13.38;;;3.00;;
66256;SDS011;53049;43.446;3.698;2024-01-15T09:59:04;7.80;;;2.78;;
66256;SDS011;53049;43.446;3.698;2024-01-15T10:01:33;7.05;;;2.80;;
66256;SDS011;53049;43.446;3.698;2024-01-15T10:04:01;6.45;;;2.60;;
66256;SDS011;53049;43.446;3.698;2024-01-15T10:06:27;10.93;;;3.00;;
66256;SDS011;53049;43.446;3.698;2024-01-15T10:08:53;7.45;;;2.83;;
66256;SDS011;53049;43.446;3.698;2024-01-15T10:11:21;4.82;;;2.38;;
66256;SDS011;53049;43.446;3.698;2024-01-15T10:13:47;7.05;;;2.42;;
66256;SDS011;53049;43.446;3.698;2024-01-15T10:16:17;5.22;;;2.38;;
66256;SDS011;53049;43.446;3.698;2024-01-15T10:18:42;4.15;;;2.30;;
66256;SDS011;53049;43.446;3.698;2024-01-15T10:21:08;4.90;;;2.10;;
66256;SDS011;53049;43.446;3.698;2024-01-15T10:23:34;4.25;;;2.22;;
66256;SDS011;53049;43.446;3.698;2024-01-15T10:26:01;4.97;;;1.98;;
66256;SDS011;53049;43.446;3.698;2024-01-15T10:28:27;4.40;;;2.15;;
66256;SDS011;53049;43.446;3.698;2024-01-15T10:30:55;3.67;;;2.10;;
66256;SDS011;53049;43.446;3.698;2024-01-15T10:33:22;5.25;;;2.55;;
66256;SDS011;53049;43.446;3.698;2024-01-15T10:35:54;5.35;;;2.88;;
66256;SDS011;53049;43.446;3.698;2024-01-15T10:38:24;5.03;;;2.65;;
66256;SDS011;53049;43.446;3.698;2024-01-15T10:40:51;6.13;;;2.85;;
66256;SDS011;53049;43.446;3.698;2024-01-15T10:43:18;4.80;;;2.55;;
66256;SDS011;53049;43.446;3.698;2024-01-15T10:45:47;5.65;;;2.97;;
66256;SDS011;53049;43.446;3.698;2024-01-15T10:48:15;4.25;;;2.67;;
66256;SDS011;53049;43.446;3.698;2024-01-15T10:50:43;5.20;;;2.80;;
66256;SDS011;53049;43.446;3.698;2024-01-15T10:53:10;6.00;;;2.88;;
66256;SDS011;53049;43.446;3.698;2024-01-15T10:55:37;7.22;;;2.80;;
66256;SDS011;53049;43.446;3.698;2024-01-15T10:58:06;4.78;;;2.40;;
66256;SDS011;53049;43.446;3.698;2024-01-15T11:00:33;4.35;;;2.42;;
66256;SDS011;53049;43.446;3.698;2024-01-15T11:03:05;6.15;;;2.45;;
66256;SDS011;53049;43.446;3.698;2024-01-15T11:05:38;4.80;;;2.00;;
66256;SDS011;53049;43.446;3.698;2024-01-15T11:08:06;4.75;;;2.50;;
66256;SDS011;53049;43.446;3.698;2024-01-15T11:13:20;4.40;;;2.30;;
66256;SDS011;53049;43.446;3.698;2024-01-15T11:18:26;4.63;;;2.33;;
66256;SDS011;53049;43.446;3.698;2024-01-15T11:23:42;4.63;;;2.10;;
66256;SDS011;53049;43.446;3.698;2024-01-15T11:34:21;4.25;;;2.30;;
66256;SDS011;53049;43.446;3.698;2024-01-15T11:37:07;5.10;;;2.40;;
66256;SDS011;53049;43.446;3.698;2024-01-15T11:41:58;4.88;;;2.67;;
66256;SDS011;53049;43.446;3.698;2024-01-15T11:44:26;5.53;;;2.67;;
66256;SDS011;53049;43.446;3.698;2024-01-15T11:46:59;4.65;;;2.55;;
66256;SDS011;53049;43.446;3.698;2024-01-15T11:52:16;6.03;;;2.45;;
66256;SDS011;53049;43.446;3.698;2024-01-15T11:54:49;3.25;;;2.20;;
66256;SDS011;53049;43.446;3.698;2024-01-15T12:00:17;7.10;;;2.50;;
66256;SDS011;53049;43.446;3.698;2024-01-15T12:02:44;5.82;;;2.30;;
66256;SDS011;53049;43.446;3.698;2024-01-15T12:05:12;2.95;;;2.08;;
66256;SDS011;53049;43.446;3.698;2024-01-15T12:07:40;4.35;;;2.20;;
66256;SDS011;53049;43.446;3.698;2024-01-15T12:10:10;3.25;;;2.10;;
66256;SDS011;53049;43.446;3.698;2024-01-15T12:15:09;4.05;;;2.40;;
66256;SDS011;53049;43.446;3.698;2024-01-15T12:17:35;3.20;;;2.22;;
66256;SDS011;53049;43.446;3.698;2024-01-15T12:20:03;3.30;;;1.90;;
66256;SDS011;53049;43.446;3.698;2024-01-15T12:22:29;4.00;;;2.00;;
66256;SDS011;53049;43.446;3.698;2024-01-15T12:24:55;4.40;;;1.92;;
66256;SDS011;53049;43.446;3.698;2024-01-15T12:27:22;6.75;;;2.25;;
66256;SDS011;53049;43.446;3.698;2024-01-15T12:29:49;3.85;;;2.20;;
66256;SDS011;53049;43.446;3.698;2024-01-15T12:32:14;3.10;;;2.13;;
66256;SDS011;53049;43.446;3.698;2024-01-15T12:34:40;5.38;;;2.47;;
66256;SDS011;53049;43.446;3.698;2024-01-15T12:37:09;3.83;;;2.40;;
66256;SDS011;53049;43.446;3.698;2024-01-15T12:39:36;4.32;;;2.20;;
66256;SDS011;53049;43.446;3.698;2024-01-15T12:42:02;4.22;;;2.30;;
66256;SDS011;53049;43.446;3.698;2024-01-15T12:44:28;3.85;;;2.22;;
66256;SDS011;53049;43.446;3.698;2024-01-15T12:46:54;4.90;;;2.15;;
66256;SDS011;53049;43.446;3.698;2024-01-15T12:49:21;6.28;;;2.60;;
66256;SDS011;53049;43.446;3.698;2024-01-15T12:51:56;4.03;;;2.20;;
66256;SDS011;53049;43.446;3.698;2024-01-15T12:54:22;4.05;;;2.30;;
66256;SDS011;53049;43.446;3.698;2024-01-15T12:56:49;5.20;;;2.38;;
66256;SDS011;53049;43.446;3.698;2024-01-15T12:59:15;4.25;;;2.20;;
66256;SDS011;53049;43.446;3.698;2024-01-15T13:01:41;4.43;;;2.33;;
66256;SDS011;53049;43.446;3.698;2024-01-15T13:04:07;5.50;;;2.92;;
66256;SDS011;53049;43.446;3.698;2024-01-15T13:06:36;5.95;;;2.70;;
66256;SDS011;53049;43.446;3.698;2024-01-15T13:09:02;5.63;;;2.47;;
66256;SDS011;53049;43.446;3.698;2024-01-15T13:11:32;4.97;;;2.67;;
66256;SDS011;53049;43.446;3.698;2024-01-15T13:13:58;5.43;;;2.47;;
66256;SDS011;53049;43.446;3.698;2024-01-15T13:16:24;6.15;;;2.25;;
66256;SDS011;53049;43.446;3.698;2024-01-15T13:18:52;4.68;;;2.38;;
66256;SDS011;53049;43.446;3.698;2024-01-15T13:21:17;3.20;;;2.28;;
66256;SDS011;53049;43.446;3.698;2024-01-15T13:23:43;3.45;;;2.17;;
66256;SDS011;53049;43.446;3.698;2024-01-15T13:26:09;4.30;;;2.30;;
66256;SDS011;53049;43.446;3.698;2024-01-15T13:28:34;5.78;;;2.50;;
66256;SDS011;53049;43.446;3.698;2024-01-15T13:31:00;3.83;;;2.38;;
66256;SDS011;53049;43.446;3.698;2024-01-15T13:33:27;5.55;;;2.20;;
66256;SDS011;53049;43.446;3.698;2024-01-15T13:35:53;3.58;;;2.00;;
66256;SDS011;53049;43.446;3.698;2024-01-15T13:38:18;6.60;;;3.60;;
66256;SDS011;53049;43.446;3.698;2024-01-15T13:40:44;9.90;;;4.90;;
66256;SDS011;53049;43.446;3.698;2024-01-15T13:43:10;7.93;;;4.55;;
66256;SDS011;53049;43.446;3.698;2024-01-15T13:45:36;4.53;;;2.50;;
66256;SDS011;53049;43.446;3.698;2024-01-15T13:48:02;5.53;;;2.00;;
66256;SDS011;53049;43.446;3.698;2024-01-15T13:50:33;3.25;;;1.85;;
66256;SDS011;53049;43.446;3.698;2024-01-15T13:53:02;4.40;;;2.00;;
66256;SDS011;53049;43.446;3.698;2024-01-15T13:55:28;2.92;;;1.83;;
66256;SDS011;53049;43.446;3.698;2024-01-15T13:57:55;1.90;;;1.13;;
66256;SDS011;53049;43.446;3.698;2024-01-15T14:00:20;3.10;;;1.30;;
66256;SDS011;53049;43.446;3.698;2024-01-15T14:02:47;2.67;;;1.40;;
66256;SDS011;53049;43.446;3.698;2024-01-15T14:05:13;1.75;;;1.00;;
66256;SDS011;53049;43.446;3.698;2024-01-15T14:07:39;1.13;;;0.90;;
66256;SDS011;53049;43.446;3.698;2024-01-15T14:10:05;1.58;;;0.90;;
66256;SDS011;53049;43.446;3.698;2024-01-15T14:12:33;2.10;;;0.95;;
66256;SDS011;53049;43.446;3.698;2024-01-15T14:14:59;1.23;;;0.95;;
66256;SDS011;53049;43.446;3.698;2024-01-15T14:17:25;1.92;;;0.70;;
66256;SDS011;53049;43.446;3.698;2024-01-15T14:19:52;4.50;;;0.90;;
66256;SDS011;53049;43.446;3.698;2024-01-15T14:22:18;0.95;;;0.85;;
66256;SDS011;53049;43.446;3.698;2024-01-15T14:24:44;1.10;;;0.80;;
66256;SDS011;53049;43.446;3.698;2024-01-15T14:27:09;0.80;;;0.80;;
66256;SDS011;53049;43.446;3.698;2024-01-15T14:29:35;1.63;;;1.20;;
66256;SDS011;53049;43.446;3.698;2024-01-15T14:32:01;1.23;;;0.95;;
66256;SDS011;53049;43.446;3.698;2024-01-15T14:34:27;0.80;;;0.80;;
66256;SDS011;53049;43.446;3.698;2024-01-15T14:36:53;1.67;;;1.00;;
66256;SDS011;53049;43.446;3.698;2024-01-15T14:39:20;0.85;;;0.82;;
66256;SDS011;53049;43.446;3.698;2024-01-15T14:41:46;0.80;;;0.80;;
66256;SDS011;53049;43.446;3.698;2024-01-15T14:44:12;0.73;;;0.73;;
66256;SDS011;53049;43.446;3.698;2024-01-15T14:46:38;1.02;;;0.70;;
66256;SDS011;53049;43.446;3.698;2024-01-15T14:49:04;3.80;;;1.10;;
66256;SDS011;53049;43.446;3.698;2024-01-15T14:51:30;1.10;;;1.00;;
66256;SDS011;53049;43.446;3.698;2024-01-15T14:53:56;1.27;;;1.00;;
66256;SDS011;53049;43.446;3.698;2024-01-15T14:56:21;0.85;;;0.63;;
66256;SDS011;53049;43.446;3.698;2024-01-15T14:58:47;1.50;;;0.88;;
66256;SDS011;53049;43.446;3.698;2024-01-15T15:01:13;1.10;;;0.90;;
66256;SDS011;53049;43.446;3.698;2024-01-15T15:03:39;0.95;;;0.93;;
66256;SDS011;53049;43.446;3.698;2024-01-15T15:06:05;1.40;;;1.00;;
66256;SDS011;53049;43.446;3.698;2024-01-15T15:08:32;1.38;;;0.93;;
66256;SDS011;53049;43.446;3.698;2024-01-15T15:10:58;2.30;;;1.08;;